Time;durP1;ratioP1;P1;durP2;ratioP2;P2;SDS_P1;SDS_P2;PMS_P1;PMS_P2;Temp;Humidity;BMP_temperature;BMP_pressure;BME280_temperature;BME280_humidity;BME280_pressure;Samples;Min_cycle;Max_cycle;Signal;HPM_P1;HPM_P2
2022/05/01 00:00:15;;;;;;;;;;;22.40;54.00;;;;;;697233;28;818;-80
2022/05/01 00:00:36;;;;;;;;;;;22.40;54.00;;;;;;697303;28;803;-80
2022/05/01 00:00:56;;;;;;;;;;;22.40;54.00;;;;;;697424;28;802;-81
2022/05/01 00:01:18;;;;;;;;;;;22.40;54.00;;;;;;696810;28;1440;-80
2022/05/01 00:01:38;;;;;;;;;;;22.50;54.00;;;;;;694889;28;830;-81
2022/05/01 00:01:59;;;;;;;;;;;22.40;53.90;;;;;;694978;28;822;-80
2022/05/01 00:02:19;;;;;;;;;;;22.40;54.00;;;;;;695251;28;854;-80
2022/05/01 00:02:40;;;;;;;;;;;22.40;53.90;;;;;;695202;28;945;-80
2022/05/01 00:03:01;;;;;;;;;;;22.40;53.80;;;;;;696016;28;893;-81
2022/05/01 00:03:31;;;;;;;;;;;22.40;53.80;;;;;;697700;28;907;-83
2022/05/01 00:03:51;;;;;;;;;;;22.50;53.90;;;;;;697466;28;835;-80
2022/05/01 00:04:12;;;;;;;;;;;23.80;54.60;;;;;;697622;28;811;-80
2022/05/01 00:04:32;;;;;;;;;;;22.40;53.90;;;;;;697199;28;921;-82
2022/05/01 00:04:53;;;;;;;;;;;22.40;53.90;;;;;;696828;28;1223;-86
2022/05/01 00:05:13;;;;;;;;;;;22.40;53.90;;;;;;696453;28;1243;-85
2022/05/01 00:05:34;;;;;;;;;;;22.40;53.90;;;;;;696905;28;928;-85
2022/05/01 00:05:54;;;;;;;;;;;22.40;53.70;;;;;;696930;28;565;-82
2022/05/01 00:06:15;;;;;;;;;;;22.40;53.80;;;;;;696904;28;849;-88
2022/05/01 00:06:35;;;;;;;;;;;22.40;53.80;;;;;;696994;28;866;-82
2022/05/01 00:06:56;;;;;;;;;;;22.40;53.80;;;;;;697004;28;889;-87
2022/05/01 00:07:17;;;;;;;;;;;22.40;54.00;;;;;;699406;28;786;-85
2022/05/01 00:07:37;;;;;;;;;;;22.40;53.90;;;;;;696996;28;826;-81
2022/05/01 00:07:58;;;;;;;;;;;22.40;54.10;;;;;;696915;28;802;-85
2022/05/01 00:08:19;;;;;;;;;;;22.40;54.30;;;;;;696852;28;826;-85
2022/05/01 00:08:41;;;;;;;;;;;22.40;54.00;;;;;;697050;28;897;-86
2022/05/01 00:09:02;;;;;;;;;;;22.40;53.90;;;;;;696991;28;894;-82
2022/05/01 00:09:23;;;;;;;;;;;22.50;53.90;;;;;;697100;28;775;-86
2022/05/01 00:09:43;;;;;;;;;;;22.40;54.00;;;;;;697032;28;909;-88
2022/05/01 00:10:04;;;;;;;;;;;22.40;54.00;;;;;;694122;28;1072;-82
2022/05/01 00:10:24;;;;;;;;;;;22.40;53.90;;;;;;694075;28;780;-84
2022/05/01 00:10:45;;;;;;;;;;;22.40;53.80;;;;;;694127;28;802;-82
2022/05/01 00:11:07;;;;;;;;;;;22.40;54.00;;;;;;694166;28;933;-82
2022/05/01 00:11:29;;;;;;;;;;;22.40;54.00;;;;;;694151;28;858;-84
2022/05/01 00:11:50;;;;;;;;;;;22.40;54.00;;;;;;694919;28;839;-88
2022/05/01 00:12:11;;;;;;;;;;;22.40;54.00;;;;;;697042;28;1089;-82
2022/05/01 00:12:32;;;;;;;;;;;22.40;54.10;;;;;;697272;28;842;-89
2022/05/01 00:12:52;;;;;;;;;;;22.40;54.00;;;;;;697148;28;849;-88
2022/05/01 00:13:15;;;;;;;;;;;22.40;54.00;;;;;;697052;28;854;-88
2022/05/01 00:13:35;;;;;;;;;;;22.40;54.00;;;;;;696716;28;933;-87
2022/05/01 00:13:59;;;;;;;;;;;22.40;54.00;;;;;;696841;28;783;-89
2022/05/01 00:14:20;;;;;;;;;;;22.40;53.90;;;;;;696893;28;842;-86
2022/05/01 00:14:40;;;;;;;;;;;22.40;53.90;;;;;;697227;28;1271;-88
2022/05/01 00:15:01;;;;;;;;;;;22.50;53.90;;;;;;696808;28;1348;-88
2022/05/01 00:15:22;;;;;;;;;;;22.40;54.00;;;;;;697056;28;837;-88
2022/05/01 00:15:43;;;;;;;;;;;22.50;53.90;;;;;;696932;28;1894;-89
2022/05/01 00:16:04;;;;;;;;;;;22.40;53.80;;;;;;697124;28;795;-83
2022/05/01 00:16:24;;;;;;;;;;;22.50;53.90;;;;;;697098;28;885;-91
2022/05/01 00:16:45;;;;;;;;;;;22.50;54.00;;;;;;697161;28;768;-85
2022/05/01 00:17:05;;;;;;;;;;;22.50;53.80;;;;;;697115;28;1128;-90
2022/05/01 00:17:26;;;;;;;;;;;22.50;53.80;;;;;;697113;28;815;-91
2022/05/01 00:17:47;;;;;;;;;;;22.50;53.80;;;;;;697033;28;779;-82
2022/05/01 00:18:07;;;;;;;;;;;22.50;53.70;;;;;;697060;28;806;-91
2022/05/01 00:18:28;;;;;;;;;;;22.50;53.70;;;;;;697105;28;791;-82
2022/05/01 00:18:49;;;;;;;;;;;22.50;54.00;;;;;;697020;28;929;-82
2022/05/01 00:19:09;;;;;;;;;;;22.50;53.60;;;;;;697147;28;782;-92
2022/05/01 00:19:30;;;;;;;;;;;22.50;53.60;;;;;;697075;28;867;-83
2022/05/01 00:19:50;;;;;;;;;;;22.50;53.60;;;;;;696634;28;1169;-89
2022/05/01 00:20:11;;;;;;;;;;;22.10;53.50;;;;;;696649;28;1240;-82
2022/05/01 00:20:31;;;;;;;;;;;22.50;53.50;;;;;;696919;28;778;-83
2022/05/01 00:20:52;;;;;;;;;;;22.50;53.50;;;;;;696941;28;945;-82
2022/05/01 00:21:13;;;;;;;;;;;22.50;53.50;;;;;;696900;28;806;-86
2022/05/01 00:21:33;;;;;;;;;;;22.50;53.50;;;;;;696985;28;1023;-88
2022/05/01 00:21:56;;;;;;;;;;;22.50;53.40;;;;;;697074;28;787;-80
2022/05/01 00:22:17;;;;;;;;;;;22.50;53.50;;;;;;696899;28;856;-82
2022/05/01 00:22:37;;;;;;;;;;;22.50;53.40;;;;;;697178;28;870;-89
2022/05/01 00:22:58;;;;;;;;;;;22.50;53.30;;;;;;697122;28;802;-81
2022/05/01 00:23:19;;;;;;;;;;;22.50;53.30;;;;;;696875;28;787;-86
2022/05/01 00:23:39;;;;;;;;;;;22.50;53.30;;;;;;697252;28;822;-89
2022/05/01 00:24:00;;;;;;;;;;;22.50;53.20;;;;;;697128;28;830;-90
2022/05/01 00:24:21;;;;;;;;;;;22.50;53.30;;;;;;696986;28;866;-81
2022/05/01 00:24:41;;;;;;;;;;;22.50;53.30;;;;;;697192;28;799;-83
2022/05/01 00:25:02;;;;;;;;;;;22.50;53.30;;;;;;697088;28;846;-86
2022/05/01 00:25:22;;;;;;;;;;;22.50;53.20;;;;;;696975;28;798;-86
2022/05/01 00:25:43;;;;;;;;;;;22.50;53.10;;;;;;697050;28;913;-86
2022/05/01 00:26:05;;;;;;;;;;;22.50;53.10;;;;;;697165;28;930;-84
2022/05/01 00:26:25;;;;;;;;;;;22.60;53.10;;;;;;696961;28;881;-83
2022/05/01 00:26:46;;;;;;;;;;;22.50;53.10;;;;;;697040;28;937;-89
2022/05/01 00:27:06;;;;;;;;;;;22.50;53.00;;;;;;697039;28;806;-83
2022/05/01 00:27:29;;;;;;;;;;;22.50;53.00;;;;;;697088;28;853;-83
2022/05/01 00:27:49;;;;;;;;;;;22.50;53.00;;;;;;697034;28;838;-86
2022/05/01 00:28:11;;;;;;;;;;;22.50;52.90;;;;;;697094;28;787;-84
2022/05/01 00:28:32;;;;;;;;;;;22.50;53.00;;;;;;696949;28;973;-80
2022/05/01 00:28:53;;;;;;;;;;;22.60;53.00;;;;;;696700;28;1249;-90
2022/05/01 00:29:13;;;;;;;;;;;22.50;52.90;;;;;;696786;28;811;-90
2022/05/01 00:29:34;;;;;;;;;;;22.60;52.90;;;;;;696886;28;877;-82
2022/05/01 00:29:55;;;;;;;;;;;22.50;52.90;;;;;;696855;28;874;-81
2022/05/01 00:30:15;;;;;;;;;;;22.60;52.90;;;;;;696774;28;862;-84
2022/05/01 00:30:36;;;;;;;;;;;22.60;52.90;;;;;;696906;28;850;-85
2022/05/01 00:30:57;;;;;;;;;;;22.60;52.90;;;;;;697049;28;894;-82
2022/05/01 00:31:17;;;;;;;;;;;22.60;52.90;;;;;;697117;28;811;-85
2022/05/01 00:31:39;;;;;;;;;;;22.60;52.90;;;;;;697122;28;886;-83
2022/05/01 00:31:59;;;;;;;;;;;22.60;52.80;;;;;;697017;28;830;-81
2022/05/01 00:32:20;;;;;;;;;;;22.60;52.80;;;;;;696918;28;818;-82
2022/05/01 00:36:36;;;;;;;;;;;22.60;52.60;;;;;;698256;28;661;-81
2022/05/01 00:36:56;;;;;;;;;;;22.60;52.60;;;;;;697612;28;857;-83
2022/05/01 00:37:19;;;;;;;;;;;22.60;52.50;;;;;;697592;28;930;-83
2022/05/01 00:37:40;;;;;;;;;;;22.60;52.50;;;;;;697513;28;834;-82
2022/05/01 00:38:00;;;;;;;;;;;22.60;52.50;;;;;;698705;28;890;-81
2022/05/01 00:38:21;;;;;;;;;;;22.60;52.50;;;;;;698482;28;814;-81
2022/05/01 00:38:41;;;;;;;;;;;22.60;52.60;;;;;;697532;28;930;-82
2022/05/01 00:39:06;;;;;;;;;;;22.60;52.60;;;;;;698483;28;843;-81
2022/05/01 00:39:26;;;;;;;;;;;22.60;52.50;;;;;;698590;28;787;-81
2022/05/01 00:39:47;;;;;;;;;;;22.60;52.40;;;;;;697715;28;1114;-81
2022/05/01 00:40:08;;;;;;;;;;;22.60;52.40;;;;;;695680;28;1686;-82
2022/05/01 00:40:28;;;;;;;;;;;22.60;52.40;;;;;;695947;28;767;-83
2022/05/01 00:40:49;;;;;;;;;;;22.60;52.40;;;;;;694835;28;838;-87
2022/05/01 00:41:11;;;;;;;;;;;22.60;52.40;;;;;;694508;28;807;-81
2022/05/01 00:41:33;;;;;;;;;;;22.60;52.40;;;;;;694229;28;893;-81
2022/05/01 00:41:53;;;;;;;;;;;22.60;52.50;;;;;;694997;28;925;-81
2022/05/01 00:42:17;;;;;;;;;;;22.60;52.50;;;;;;696915;28;1345;-81
2022/05/01 00:42:37;;;;;;;;;;;22.60;52.60;;;;;;693890;28;1241;-83
2022/05/01 00:43:02;;;;;;;;;;;22.60;52.60;;;;;;694421;28;818;-81
2022/05/01 00:43:23;;;;;;;;;;;22.60;52.50;;;;;;694439;28;830;-84
2022/05/01 00:44:08;;;;;;;;;;;22.60;52.60;;;;;;694114;28;798;-82
2022/05/01 00:44:29;;;;;;;;;;;22.50;52.50;;;;;;695492;28;1362;-81
2022/05/01 00:44:49;;;;;;;;;;;22.60;52.60;;;;;;697348;28;826;-81
2022/05/01 00:45:10;;;;;;;;;;;22.60;52.60;;;;;;697983;28;822;-82
2022/05/01 00:45:31;;;;;;;;;;;22.60;52.60;;;;;;696879;28;949;-94
2022/05/01 00:45:51;;;;;;;;;;;22.50;52.50;;;;;;696855;28;976;-82
2022/05/01 00:46:12;;;;;;;;;;;22.60;52.60;;;;;;696822;28;798;-89
2022/05/01 00:46:33;;;;;;;;;;;22.60;52.60;;;;;;697073;28;885;-86
2022/05/01 00:46:54;;;;;;;;;;;22.60;52.60;;;;;;697048;28;787;-81
2022/05/01 00:47:16;;;;;;;;;;;22.50;52.50;;;;;;697116;28;890;-83
2022/05/01 00:47:40;;;;;;;;;;;22.50;52.60;;;;;;696843;28;891;-82
2022/05/01 00:48:01;;;;;;;;;;;22.50;52.60;;;;;;696990;28;838;-86
2022/05/01 00:48:21;;;;;;;;;;;22.50;52.50;;;;;;696593;28;944;-82
2022/05/01 00:48:42;;;;;;;;;;;22.50;52.80;;;;;;696917;28;930;-84
2022/05/01 00:49:04;;;;;;;;;;;22.50;52.50;;;;;;696919;28;922;-85
2022/05/01 00:49:25;;;;;;;;;;;22.50;52.50;;;;;;696875;28;854;-80
2022/05/01 00:49:45;;;;;;;;;;;22.50;52.50;;;;;;696720;28;786;-83
2022/05/01 00:50:06;;;;;;;;;;;22.50;52.70;;;;;;696911;28;795;-88
2022/05/01 00:50:27;;;;;;;;;;;22.50;52.50;;;;;;696975;28;933;-81
2022/05/01 00:50:47;;;;;;;;;;;22.50;52.50;;;;;;696985;28;886;-82
2022/05/01 00:51:09;;;;;;;;;;;22.50;52.60;;;;;;697042;28;795;-84
2022/05/01 00:51:33;;;;;;;;;;;22.50;52.50;;;;;;697031;28;885;-82
2022/05/01 00:51:59;;;;;;;;;;;22.50;52.60;;;;;;696893;28;814;-82
2022/05/01 00:52:19;;;;;;;;;;;22.50;52.60;;;;;;696528;28;1360;-81
2022/05/01 00:52:40;;;;;;;;;;;22.50;52.50;;;;;;696262;28;901;-81
2022/05/01 00:53:01;;;;;;;;;;;22.50;52.60;;;;;;696832;28;826;-82
2022/05/01 00:53:22;;;;;;;;;;;22.50;52.80;;;;;;696762;28;839;-83
2022/05/01 00:53:43;;;;;;;;;;;22.50;52.70;;;;;;696677;28;771;-81
2022/05/01 00:54:07;;;;;;;;;;;22.50;52.60;;;;;;696883;28;783;-81
2022/05/01 00:54:29;;;;;;;;;;;22.50;52.60;;;;;;696802;28;881;-81
2022/05/01 00:54:49;;;;;;;;;;;22.50;52.60;;;;;;696958;28;959;-82
2022/05/01 00:55:10;;;;;;;;;;;22.50;52.60;;;;;;697099;28;847;-82
2022/05/01 00:55:31;;;;;;;;;;;22.50;52.50;;;;;;696893;28;898;-82
2022/05/01 00:55:52;;;;;;;;;;;22.50;52.60;;;;;;696714;28;1886;-81
2022/05/01 00:56:12;;;;;;;;;;;22.50;52.60;;;;;;696846;28;862;-81
2022/05/01 00:56:39;;;;;;;;;;;22.50;52.60;;;;;;696971;28;882;-81
2022/05/01 00:57:03;;;;;;;;;;;22.50;52.50;;;;;;696623;28;811;-82
2022/05/01 00:57:25;;;;;;;;;;;22.50;52.60;;;;;;696734;28;937;-81
2022/05/01 00:57:45;;;;;;;;;;;22.50;52.60;;;;;;696586;28;873;-82
2022/05/01 00:58:06;;;;;;;;;;;22.50;52.70;;;;;;696452;28;803;-81
2022/05/01 00:58:28;;;;;;;;;;;22.50;52.60;;;;;;696745;28;818;-83
2022/05/01 00:58:49;;;;;;;;;;;22.50;52.70;;;;;;696783;28;869;-81
2022/05/01 00:59:10;;;;;;;;;;;22.50;52.70;;;;;;696929;28;850;-82
2022/05/01 00:59:31;;;;;;;;;;;22.50;52.80;;;;;;696649;28;890;-82
2022/05/01 00:59:52;;;;;;;;;;;22.50;52.70;;;;;;696861;28;838;-81
2022/05/01 01:00:13;;;;;;;;;;;22.50;52.90;;;;;;696804;28;827;-81
2022/05/01 01:00:34;;;;;;;;;;;22.50;52.80;;;;;;696949;28;952;-82
2022/05/01 01:00:55;;;;;;;;;;;22.50;52.70;;;;;;696937;28;949;-83
2022/05/01 01:01:16;;;;;;;;;;;22.50;52.80;;;;;;696902;28;894;-81
2022/05/01 01:01:36;;;;;;;;;;;22.50;52.80;;;;;;696950;28;934;-82
2022/05/01 01:01:57;;;;;;;;;;;22.50;52.90;;;;;;696845;28;815;-83
2022/05/01 01:02:17;;;;;;;;;;;22.50;52.80;;;;;;696861;28;917;-82
2022/05/01 01:02:38;;;;;;;;;;;22.50;52.80;;;;;;696637;28;1264;-81
2022/05/01 01:02:58;;;;;;;;;;;22.50;52.80;;;;;;696671;28;870;-82
2022/05/01 01:03:19;;;;;;;;;;;22.50;52.80;;;;;;693782;28;996;-81
2022/05/01 01:03:39;;;;;;;;;;;22.50;52.80;;;;;;694092;28;941;-81
2022/05/01 01:04:00;;;;;;;;;;;22.50;52.80;;;;;;693886;28;815;-82
2022/05/01 01:04:21;;;;;;;;;;;22.50;52.80;;;;;;691211;28;1322;-82
2022/05/01 01:04:41;;;;;;;;;;;22.50;52.90;;;;;;694105;28;874;-82
2022/05/01 01:05:02;;;;;;;;;;;22.50;52.80;;;;;;694174;28;806;-80
2022/05/01 01:05:22;;;;;;;;;;;22.50;52.80;;;;;;696797;28;791;-82
2022/05/01 01:05:44;;;;;;;;;;;22.50;52.80;;;;;;693317;28;1385;-83
2022/05/01 01:06:05;;;;;;;;;;;22.50;52.80;;;;;;694581;28;846;-82
2022/05/01 01:06:26;;;;;;;;;;;22.50;53.80;;;;;;693847;28;1101;-82
2022/05/01 01:06:46;;;;;;;;;;;22.50;52.80;;;;;;693889;28;790;-82
2022/05/01 01:07:07;;;;;;;;;;;22.50;52.80;;;;;;691227;28;1345;-82
2022/05/01 01:07:28;;;;;;;;;;;22.50;52.80;;;;;;691789;28;828;-82
2022/05/01 01:07:48;;;;;;;;;;;22.50;52.80;;;;;;693899;28;803;-82
2022/05/01 01:08:09;;;;;;;;;;;22.50;52.90;;;;;;694337;28;949;-82
2022/05/01 01:08:29;;;;;;;;;;;22.50;52.90;;;;;;696614;28;814;-81
2022/05/01 01:08:50;;;;;;;;;;;22.50;52.80;;;;;;696699;28;857;-82
2022/05/01 01:09:11;;;;;;;;;;;22.50;52.80;;;;;;696675;28;1244;-82
2022/05/01 01:09:33;;;;;;;;;;;22.50;52.80;;;;;;696825;28;866;-81
2022/05/01 01:09:53;;;;;;;;;;;22.50;52.70;;;;;;693821;28;1430;-82
2022/05/01 01:10:14;;;;;;;;;;;22.50;52.70;;;;;;694003;28;810;-84
2022/05/01 01:10:34;;;;;;;;;;;22.50;52.70;;;;;;694051;28;878;-87
2022/05/01 01:10:55;;;;;;;;;;;22.50;52.70;;;;;;694275;28;830;-83
2022/05/01 01:11:15;;;;;;;;;;;22.50;52.70;;;;;;696687;28;871;-81
2022/05/01 01:11:37;;;;;;;;;;;22.50;52.70;;;;;;696837;28;823;-82
2022/05/01 01:12:55;;;;;;;;;;;22.50;52.70;;;;;;696791;28;589;-84
2022/05/01 01:13:15;;;;;;;;;;;22.50;52.60;;;;;;696566;28;1419;-81
2022/05/01 01:13:36;;;;;;;;;;;22.50;52.70;;;;;;696824;28;798;-82
2022/05/01 01:13:57;;;;;;;;;;;22.40;52.70;;;;;;696823;28;831;-82
2022/05/01 01:14:24;;;;;;;;;;;22.40;52.70;;;;;;696937;28;771;-81
2022/05/01 01:14:44;;;;;;;;;;;22.40;52.70;;;;;;696795;28;799;-84
2022/05/01 01:15:08;;;;;;;;;;;22.40;52.80;;;;;;696889;28;819;-82
2022/05/01 01:15:29;;;;;;;;;;;22.40;52.80;;;;;;696877;28;846;-82
2022/05/01 01:15:49;;;;;;;;;;;22.40;52.60;;;;;;696889;28;1910;-82
2022/05/01 01:16:10;;;;;;;;;;;22.50;52.60;;;;;;696835;28;890;-83
2022/05/01 01:16:32;;;;;;;;;;;22.40;52.60;;;;;;696853;28;513;-81
2022/05/01 01:16:52;;;;;;;;;;;22.40;52.60;;;;;;696861;28;815;-82
2022/05/01 01:17:13;;;;;;;;;;;22.40;52.50;;;;;;696775;28;877;-83
2022/05/01 01:17:38;;;;;;;;;;;22.40;52.60;;;;;;696534;28;1337;-83
2022/05/01 01:17:58;;;;;;;;;;;22.40;52.50;;;;;;696688;28;845;-82
2022/05/01 01:18:19;;;;;;;;;;;22.40;52.60;;;;;;696760;28;849;-81
2022/05/01 01:18:40;;;;;;;;;;;22.40;52.50;;;;;;696755;28;811;-84
2022/05/01 01:19:02;;;;;;;;;;;22.40;52.60;;;;;;696562;28;980;-81
2022/05/01 01:19:22;;;;;;;;;;;22.40;52.70;;;;;;696761;28;810;-82
2022/05/01 01:19:43;;;;;;;;;;;22.40;52.70;;;;;;696842;28;1065;-82
2022/05/01 01:20:11;;;;;;;;;;;22.40;52.60;;;;;;697014;28;799;-89
2022/05/01 01:20:31;;;;;;;;;;;22.40;52.50;;;;;;699149;28;1218;-82
2022/05/01 01:20:52;;;;;;;;;;;22.40;52.80;;;;;;699469;28;822;-81
2022/05/01 01:21:13;;;;;;;;;;;22.40;53.70;;;;;;699248;28;1308;-82
2022/05/01 01:21:34;;;;;;;;;;;22.40;52.60;;;;;;699502;28;869;-82
2022/05/01 01:21:55;;;;;;;;;;;22.40;52.60;;;;;;699376;28;837;-82
2022/05/01 01:22:16;;;;;;;;;;;22.40;52.60;;;;;;696569;28;1295;-82
2022/05/01 01:22:38;;;;;;;;;;;22.40;52.60;;;;;;696413;28;1097;-83
2022/05/01 01:22:59;;;;;;;;;;;22.50;52.50;;;;;;696804;28;549;-82
2022/05/01 01:23:20;;;;;;;;;;;22.40;52.40;;;;;;696639;28;837;-82
2022/05/01 01:23:41;;;;;;;;;;;22.40;52.50;;;;;;696733;28;886;-82
2022/05/01 01:24:05;;;;;;;;;;;22.40;52.60;;;;;;696867;28;846;-82
2022/05/01 01:24:26;;;;;;;;;;;22.40;52.60;;;;;;696081;28;1206;-82
2022/05/01 01:24:48;;;;;;;;;;;22.40;52.60;;;;;;696696;28;818;-82
2022/05/01 01:25:10;;;;;;;;;;;22.40;52.60;;;;;;696693;28;799;-82
2022/05/01 01:25:31;;;;;;;;;;;22.40;52.70;;;;;;696643;28;838;-82
2022/05/01 01:25:52;;;;;;;;;;;22.40;52.70;;;;;;696718;28;773;-82
2022/05/01 01:26:13;;;;;;;;;;;22.40;53.70;;;;;;696806;28;801;-82
2022/05/01 01:26:34;;;;;;;;;;;22.40;52.60;;;;;;696967;28;853;-84
2022/05/01 01:26:56;;;;;;;;;;;22.40;52.50;;;;;;696807;28;782;-82
2022/05/01 01:27:16;;;;;;;;;;;22.40;52.50;;;;;;696782;28;849;-82
2022/05/01 01:27:38;;;;;;;;;;;22.40;52.50;;;;;;693833;28;894;-83
2022/05/01 01:27:59;;;;;;;;;;;22.40;52.50;;;;;;693839;28;922;-82
2022/05/01 01:28:21;;;;;;;;;;;22.40;52.50;;;;;;693829;28;819;-81
2022/05/01 01:28:41;;;;;;;;;;;22.40;52.50;;;;;;694074;28;873;-81
2022/05/01 01:31:40;;;;;;;;;;;22.40;52.50;;;;;;693939;28;833;-82
2022/05/01 01:31:41;;;;;;;;;;;22.40;52.60;;;;;;696851;28;613;-82
2022/05/01 01:32:02;;;;;;;;;;;22.40;52.50;;;;;;696762;28;790;-82
2022/05/01 01:32:25;;;;;;;;;;;22.40;52.50;;;;;;696748;28;767;-82
2022/05/01 01:32:46;;;;;;;;;;;22.40;52.50;;;;;;696792;28;830;-82
2022/05/01 01:33:07;;;;;;;;;;;22.40;52.50;;;;;;696934;28;802;-82
2022/05/01 01:33:28;;;;;;;;;;;22.40;52.60;;;;;;696717;28;866;-82
2022/05/01 01:33:50;;;;;;;;;;;22.40;52.50;;;;;;696822;28;842;-82
2022/05/01 01:34:14;;;;;;;;;;;22.40;52.60;;;;;;697001;28;961;-83
2022/05/01 01:34:37;;;;;;;;;;;22.40;52.50;;;;;;696787;28;1332;-82
2022/05/01 01:34:58;;;;;;;;;;;22.40;52.60;;;;;;696733;28;853;-81
2022/05/01 01:35:23;;;;;;;;;;;22.40;52.50;;;;;;696747;28;842;-82
2022/05/01 01:35:46;;;;;;;;;;;22.40;52.50;;;;;;696785;28;1965;-82
2022/05/01 01:36:06;;;;;;;;;;;22.40;52.50;;;;;;696943;28;858;-83
2022/05/01 01:36:28;;;;;;;;;;;22.40;52.40;;;;;;696841;28;724;-83
2022/05/01 01:36:50;;;;;;;;;;;22.40;52.50;;;;;;698688;28;948;-82
2022/05/01 01:37:11;;;;;;;;;;;22.40;52.50;;;;;;699526;28;822;-83
2022/05/01 01:37:33;;;;;;;;;;;22.40;52.80;;;;;;699317;28;860;-86
2022/05/01 01:37:54;;;;;;;;;;;22.40;52.60;;;;;;699317;28;858;-82
2022/05/01 01:38:16;;;;;;;;;;;22.40;52.60;;;;;;699355;28;814;-83
2022/05/01 01:38:38;;;;;;;;;;;22.30;52.50;;;;;;698568;28;826;-83
2022/05/01 01:38:59;;;;;;;;;;;22.40;53.60;;;;;;696769;28;834;-82
2022/05/01 01:39:21;;;;;;;;;;;22.40;52.50;;;;;;696658;28;1311;-81
2022/05/01 01:39:42;;;;;;;;;;;22.30;52.60;;;;;;696906;28;858;-83
2022/05/01 01:40:03;;;;;;;;;;;22.30;52.50;;;;;;696803;28;881;-83
2022/05/01 01:40:29;;;;;;;;;;;22.40;52.60;;;;;;696724;28;1279;-83
2022/05/01 01:40:54;;;;;;;;;;;22.40;52.50;;;;;;696894;28;889;-81
2022/05/01 01:41:18;;;;;;;;;;;22.30;52.40;;;;;;696870;28;845;-83
2022/05/01 01:41:41;;;;;;;;;;;22.30;52.40;;;;;;696791;28;1395;-83
2022/05/01 01:42:07;;;;;;;;;;;22.30;52.40;;;;;;696822;28;782;-82
2022/05/01 01:42:29;;;;;;;;;;;22.30;52.50;;;;;;696405;28;1255;-83
2022/05/01 01:42:50;;;;;;;;;;;22.40;52.50;;;;;;696777;28;921;-83
2022/05/01 01:43:12;;;;;;;;;;;22.30;52.50;;;;;;696802;28;1365;-84
2022/05/01 01:43:34;;;;;;;;;;;22.40;52.60;;;;;;696801;28;806;-83
2022/05/01 01:43:55;;;;;;;;;;;22.20;52.40;;;;;;696726;28;826;-83
2022/05/01 01:44:16;;;;;;;;;;;22.40;52.50;;;;;;696690;28;917;-82
2022/05/01 01:44:37;;;;;;;;;;;22.30;52.40;;;;;;696859;28;909;-83
2022/05/01 01:44:59;;;;;;;;;;;22.40;52.50;;;;;;696233;28;1400;-83
2022/05/01 01:45:20;;;;;;;;;;;22.40;52.50;;;;;;696600;28;965;-83
2022/05/01 01:45:40;;;;;;;;;;;22.30;52.40;;;;;;696644;28;962;-82
2022/05/01 01:46:01;;;;;;;;;;;22.30;52.50;;;;;;696622;28;794;-83
2022/05/01 01:46:21;;;;;;;;;;;22.30;52.50;;;;;;696485;28;901;-83
2022/05/01 01:46:42;;;;;;;;;;;22.30;52.60;;;;;;696614;28;948;-83
2022/05/01 01:47:02;;;;;;;;;;;22.40;52.60;;;;;;696852;28;790;-83
2022/05/01 01:47:23;;;;;;;;;;;22.40;52.70;;;;;;696839;28;792;-85
2022/05/01 01:47:44;;;;;;;;;;;22.40;52.70;;;;;;696290;28;954;-83
2022/05/01 01:48:09;;;;;;;;;;;22.30;52.60;;;;;;696683;28;819;-84
2022/05/01 01:48:29;;;;;;;;;;;22.30;52.60;;;;;;696472;28;810;-84
2022/05/01 01:48:51;;;;;;;;;;;22.40;52.70;;;;;;696688;28;873;-83
2022/05/01 01:49:11;;;;;;;;;;;22.30;52.60;;;;;;696625;28;881;-84
2022/05/01 01:49:32;;;;;;;;;;;22.30;52.60;;;;;;696669;28;837;-83
2022/05/01 01:49:52;;;;;;;;;;;22.40;52.70;;;;;;696800;28;787;-84
2022/05/01 01:50:13;;;;;;;;;;;22.40;52.70;;;;;;696828;28;786;-83
2022/05/01 01:50:33;;;;;;;;;;;22.40;52.70;;;;;;696807;28;767;-88
2022/05/01 01:50:57;;;;;;;;;;;22.30;52.60;;;;;;696809;28;826;-82
2022/05/01 01:51:18;;;;;;;;;;;22.40;52.60;;;;;;696656;28;791;-83
2022/05/01 01:51:39;;;;;;;;;;;22.40;52.60;;;;;;696805;28;834;-86
2022/05/01 01:51:59;;;;;;;;;;;22.40;52.60;;;;;;696727;28;826;-82
2022/05/01 01:52:20;;;;;;;;;;;22.40;53.20;;;;;;696845;28;858;-82
2022/05/01 01:52:44;;;;;;;;;;;22.40;52.70;;;;;;696784;28;906;-85
2022/05/01 01:53:04;;;;;;;;;;;24.30;54.70;;;;;;696883;28;830;-84
2022/05/01 01:53:26;;;;;;;;;;;22.40;52.60;;;;;;696808;28;922;-84
2022/05/01 01:53:48;;;;;;;;;;;22.40;52.50;;;;;;696678;28;508;-87
2022/05/01 01:54:09;;;;;;;;;;;22.40;52.40;;;;;;695605;28;1592;-87
2022/05/01 01:54:29;;;;;;;;;;;22.40;52.40;;;;;;696576;28;767;-82
2022/05/01 01:54:51;;;;;;;;;;;22.40;52.40;;;;;;696508;28;795;-85
2022/05/01 01:55:15;;;;;;;;;;;22.40;52.30;;;;;;696743;28;909;-83
2022/05/01 01:55:37;;;;;;;;;;;22.40;52.30;;;;;;696777;28;787;-82
2022/05/01 01:55:58;;;;;;;;;;;22.40;52.40;;;;;;694646;28;1898;-83
2022/05/01 01:56:18;;;;;;;;;;;22.40;52.20;;;;;;696576;28;810;-86
2022/05/01 01:56:39;;;;;;;;;;;22.40;52.60;;;;;;696667;28;861;-82
2022/05/01 01:56:59;;;;;;;;;;;22.40;52.50;;;;;;696606;28;830;-82
2022/05/01 01:57:20;;;;;;;;;;;22.40;52.30;;;;;;696635;28;791;-83
2022/05/01 01:57:41;;;;;;;;;;;22.40;52.10;;;;;;696645;28;798;-83
2022/05/01 01:58:01;;;;;;;;;;;22.40;52.10;;;;;;696827;28;838;-82
2022/05/01 01:58:22;;;;;;;;;;;22.50;52.10;;;;;;696844;28;791;-86
2022/05/01 01:58:42;;;;;;;;;;;22.50;52.00;;;;;;696993;28;886;-83
2022/05/01 01:59:03;;;;;;;;;;;22.50;52.50;;;;;;697016;28;878;-84
2022/05/01 01:59:23;;;;;;;;;;;22.50;52.10;;;;;;699308;28;909;-83
2022/05/01 01:59:44;;;;;;;;;;;22.50;51.90;;;;;;699457;28;786;-87
2022/05/01 02:00:05;;;;;;;;;;;22.50;51.90;;;;;;699693;28;913;-84
2022/05/01 02:00:25;;;;;;;;;;;22.50;51.90;;;;;;699556;28;890;-83
2022/05/01 02:00:46;;;;;;;;;;;22.50;53.00;;;;;;699879;28;854;-83
2022/05/01 02:01:07;;;;;;;;;;;22.50;51.90;;;;;;696306;28;1339;-83
2022/05/01 02:01:28;;;;;;;;;;;22.50;51.90;;;;;;693955;28;1324;-86
2022/05/01 02:01:49;;;;;;;;;;;22.50;51.90;;;;;;693967;28;853;-82
2022/05/01 02:02:09;;;;;;;;;;;22.50;51.90;;;;;;692444;28;941;-84
2022/05/01 02:02:30;;;;;;;;;;;22.50;51.80;;;;;;692442;28;791;-81
2022/05/01 02:03:00;;;;;;;;;;;22.50;51.70;;;;;;692688;28;795;-82
2022/05/01 02:03:20;;;;;;;;;;;22.50;51.70;;;;;;696720;28;862;-82
2022/05/01 02:03:41;;;;;;;;;;;22.50;51.60;;;;;;698479;28;968;-82
2022/05/01 02:04:02;;;;;;;;;;;22.50;51.60;;;;;;698703;28;774;-82
2022/05/01 02:04:23;;;;;;;;;;;22.50;51.60;;;;;;698760;28;1020;-81
2022/05/01 02:04:43;;;;;;;;;;;22.50;51.70;;;;;;698310;28;850;-81
2022/05/01 02:05:04;;;;;;;;;;;22.50;51.60;;;;;;697343;28;865;-84
2022/05/01 02:05:25;;;;;;;;;;;22.50;51.60;;;;;;696691;28;807;-84
2022/05/01 02:05:49;;;;;;;;;;;22.50;51.60;;;;;;696809;28;830;-90
2022/05/01 02:06:10;;;;;;;;;;;22.50;51.90;;;;;;696931;28;818;-83
2022/05/01 02:06:30;;;;;;;;;;;22.50;51.60;;;;;;696296;28;835;-83
2022/05/01 02:06:51;;;;;;;;;;;22.50;51.60;;;;;;696497;28;855;-85
2022/05/01 02:07:11;;;;;;;;;;;22.50;51.60;;;;;;696625;28;870;-83
2022/05/01 02:07:33;;;;;;;;;;;22.50;51.60;;;;;;696666;28;866;-83
2022/05/01 02:07:54;;;;;;;;;;;22.50;51.60;;;;;;696513;28;905;-86
2022/05/01 02:08:14;;;;;;;;;;;22.50;51.60;;;;;;696634;28;952;-85
2022/05/01 02:08:35;;;;;;;;;;;22.50;51.60;;;;;;696895;28;814;-84
2022/05/01 02:08:58;;;;;;;;;;;22.50;52.70;;;;;;696698;28;815;-83
2022/05/01 02:09:18;;;;;;;;;;;22.50;51.60;;;;;;696598;28;877;-83
2022/05/01 02:09:39;;;;;;;;;;;22.50;51.60;;;;;;696554;28;779;-83
2022/05/01 02:10:00;;;;;;;;;;;22.50;51.60;;;;;;695977;28;866;-83
2022/05/01 02:10:21;;;;;;;;;;;22.50;51.60;;;;;;693598;28;1243;-83
2022/05/01 02:10:42;;;;;;;;;;;22.50;51.70;;;;;;693987;28;577;-89
2022/05/01 02:11:03;;;;;;;;;;;22.50;51.60;;;;;;693864;28;910;-83
2022/05/01 02:11:24;;;;;;;;;;;22.50;51.60;;;;;;693890;28;791;-86
2022/05/01 02:11:45;;;;;;;;;;;22.50;51.70;;;;;;691630;28;1286;-86
2022/05/01 02:12:08;;;;;;;;;;;22.50;51.50;;;;;;691540;28;1287;-83
2022/05/01 02:12:29;;;;;;;;;;;22.50;51.60;;;;;;693839;28;736;-82
2022/05/01 02:12:49;;;;;;;;;;;22.50;51.80;;;;;;693927;28;913;-87
2022/05/01 02:13:10;;;;;;;;;;;22.50;51.90;;;;;;693836;28;787;-81
2022/05/01 02:13:31;;;;;;;;;;;22.50;51.90;;;;;;694493;28;937;-83
2022/05/01 02:13:51;;;;;;;;;;;22.50;51.40;;;;;;696596;28;787;-83
2022/05/01 02:14:12;;;;;;;;;;;22.50;51.50;;;;;;696715;28;790;-84
2022/05/01 02:14:33;;;;;;;;;;;22.50;51.40;;;;;;696475;28;843;-82
2022/05/01 02:14:53;;;;;;;;;;;22.50;51.40;;;;;;696444;28;802;-83
2022/05/01 02:15:15;;;;;;;;;;;22.50;51.30;;;;;;696595;28;842;-83
2022/05/01 02:15:36;;;;;;;;;;;22.50;51.40;;;;;;696646;28;905;-82
2022/05/01 02:15:56;;;;;;;;;;;22.50;51.40;;;;;;696457;28;1964;-86
2022/05/01 02:16:17;;;;;;;;;;;22.50;51.40;;;;;;696626;28;988;-81
2022/05/01 02:16:39;;;;;;;;;;;22.50;51.50;;;;;;696739;28;818;-85